sensor_id;sensor_type;location;lat;lon;timestamp;pressure;altitude;pressure_sealevel;temperature;humidity
6829;BME280;17930;48.592;8.868;2024-01-30T00:02:12;98157.16;;;-0.50;100.00
6829;BME280;17930;48.592;8.868;2024-01-30T00:04:40;98160.69;;;-0.51;100.00
6829;BME280;17930;48.592;8.868;2024-01-30T00:07:07;98162.97;;;-0.56;100.00
6829;BME280;17930;48.592;8.868;2024-01-30T00:09:34;98161.84;;;-0.53;100.00
6829;BME280;17930;48.592;8.868;2024-01-30T00:12:01;98163.91;;;-0.49;100.00
6829;BME280;17930;48.592;8.868;2024-01-30T00:14:28;98168.44;;;-0.59;100.00
6829;BME280;17930;48.592;8.868;2024-01-30T00:16:54;98159.13;;;-0.52;100.00
6829;BME280;17930;48.592;8.868;2024-01-30T00:19:21;98157.84;;;-0.56;100.00
6829;BME280;17930;48.592;8.868;2024-01-30T00:21:51;98163.31;;;-0.59;100.00
6829;BME280;17930;48.592;8.868;2024-01-30T00:24:17;98161.41;;;-0.65;100.00
6829;BME280;17930;48.592;8.868;2024-01-30T00:26:44;98160.09;;;-0.61;100.00
6829;BME280;17930;48.592;8.868;2024-01-30T00:29:11;98164.44;;;-0.61;100.00
6829;BME280;17930;48.592;8.868;2024-01-30T00:31:44;98160.44;;;-0.64;100.00
6829;BME280;17930;48.592;8.868;2024-01-30T00:34:11;98163.97;;;-0.65;100.00
6829;BME280;17930;48.592;8.868;2024-01-30T00:36:38;98166.81;;;-0.60;100.00
6829;BME280;17930;48.592;8.868;2024-01-30T00:39:06;98161.25;;;-0.63;100.00
6829;BME280;17930;48.592;8.868;2024-01-30T00:41:34;98161.09;;;-0.70;100.00
6829;BME280;17930;48.592;8.868;2024-01-30T00:44:01;98163.34;;;-0.67;100.00
6829;BME280;17930;48.592;8.868;2024-01-30T00:46:27;98164.63;;;-0.71;100.00
6829;BME280;17930;48.592;8.868;2024-01-30T00:48:54;98160.69;;;-0.51;100.00
6829;BME280;17930;48.592;8.868;2024-01-30T00:51:21;98155.97;;;-0.62;100.00
6829;BME280;17930;48.592;8.868;2024-01-30T00:53:48;98156.94;;;-0.71;100.00
6829;BME280;17930;48.592;8.868;2024-01-30T00:56:16;98150.28;;;-0.80;100.00
6829;BME280;17930;48.592;8.868;2024-01-30T00:58:43;98155.38;;;-0.80;100.00
6829;BME280;17930;48.592;8.868;2024-01-30T01:01:09;98154.69;;;-0.66;100.00
6829;BME280;17930;48.592;8.868;2024-01-30T01:03:36;98157.88;;;-0.64;100.00
6829;BME280;17930;48.592;8.868;2024-01-30T01:06:03;98153.91;;;-0.66;100.00
6829;BME280;17930;48.592;8.868;2024-01-30T01:08:30;98155.66;;;-0.67;100.00
6829;BME280;17930;48.592;8.868;2024-01-30T01:10:59;98161.28;;;-0.71;100.00
6829;BME280;17930;48.592;8.868;2024-01-30T01:13:27;98167.84;;;-0.69;100.00
6829;BME280;17930;48.592;8.868;2024-01-30T01:15:54;98163.25;;;-0.81;100.00
6829;BME280;17930;48.592;8.868;2024-01-30T01:18:21;98154.28;;;-0.77;100.00
6829;BME280;17930;48.592;8.868;2024-01-30T01:20:47;98156.34;;;-0.81;100.00
6829;BME280;17930;48.592;8.868;2024-01-30T01:23:14;98159.88;;;-0.82;100.00
6829;BME280;17930;48.592;8.868;2024-01-30T01:25:41;98162.44;;;-0.82;100.00
6829;BME280;17930;48.592;8.868;2024-01-30T01:28:07;98165.97;;;-0.83;100.00
6829;BME280;17930;48.592;8.868;2024-01-30T01:30:35;98163.91;;;-0.87;100.00
6829;BME280;17930;48.592;8.868;2024-01-30T01:33:02;98165.38;;;-0.93;100.00
6829;BME280;17930;48.592;8.868;2024-01-30T01:35:29;98167.59;;;-0.90;100.00
6829;BME280;17930;48.592;8.868;2024-01-30T01:37:55;98162.81;;;-0.93;100.00
6829;BME280;17930;48.592;8.868;2024-01-30T01:40:24;98163.13;;;-0.96;100.00
6829;BME280;17930;48.592;8.868;2024-01-30T01:42:51;98169.22;;;-0.97;100.00
6829;BME280;17930;48.592;8.868;2024-01-30T01:45:18;98164.25;;;-0.90;100.00
6829;BME280;17930;48.592;8.868;2024-01-30T01:47:47;98165.38;;;-0.93;100.00
6829;BME280;17930;48.592;8.868;2024-01-30T01:50:16;98167.31;;;-0.95;100.00
6829;BME280;17930;48.592;8.868;2024-01-30T01:52:44;98163.47;;;-0.99;100.00
6829;BME280;17930;48.592;8.868;2024-01-30T01:55:14;98164.88;;;-0.96;100.00
6829;BME280;17930;48.592;8.868;2024-01-30T01:57:41;98154.63;;;-0.96;100.00
6829;BME280;17930;48.592;8.868;2024-01-30T02:00:09;98152.91;;;-1.03;100.00
6829;BME280;17930;48.592;8.868;2024-01-30T02:02:36;98155.84;;;-1.14;100.00
6829;BME280;17930;48.592;8.868;2024-01-30T02:05:05;98156.31;;;-1.11;100.00
6829;BME280;17930;48.592;8.868;2024-01-30T02:07:32;98161.88;;;-1.07;100.00
6829;BME280;17930;48.592;8.868;2024-01-30T02:09:59;98153.41;;;-1.08;100.00
6829;BME280;17930;48.592;8.868;2024-01-30T02:12:25;98152.63;;;-1.16;100.00
6829;BME280;17930;48.592;8.868;2024-01-30T02:14:52;98151.38;;;-1.20;100.00
6829;BME280;17930;48.592;8.868;2024-01-30T02:17:21;98152.03;;;-1.18;100.00
6829;BME280;17930;48.592;8.868;2024-01-30T02:19:48;98158.88;;;-1.19;100.00
6829;BME280;17930;48.592;8.868;2024-01-30T02:22:16;98153.31;;;-1.22;100.00
6829;BME280;17930;48.592;8.868;2024-01-30T02:24:43;98155.31;;;-1.02;100.00
6829;BME280;17930;48.592;8.868;2024-01-30T02:27:10;98157.38;;;-0.98;100.00
6829;BME280;17930;48.592;8.868;2024-01-30T02:29:36;98156.47;;;-1.04;100.00
6829;BME280;17930;48.592;8.868;2024-01-30T02:32:04;98156.31;;;-1.11;100.00
6829;BME280;17930;48.592;8.868;2024-01-30T02:34:31;98163.38;;;-1.21;100.00
6829;BME280;17930;48.592;8.868;2024-01-30T02:36:58;98158.75;;;-1.25;100.00
6829;BME280;17930;48.592;8.868;2024-01-30T02:39:26;98164.53;;;-1.31;100.00
6829;BME280;17930;48.592;8.868;2024-01-30T02:41:53;98163.88;;;-1.33;100.00
6829;BME280;17930;48.592;8.868;2024-01-30T02:44:20;98161.63;;;-1.28;100.00
6829;BME280;17930;48.592;8.868;2024-01-30T02:46:47;98167.03;;;-1.23;100.00
6829;BME280;17930;48.592;8.868;2024-01-30T02:49:13;98158.75;;;-1.25;100.00
6829;BME280;17930;48.592;8.868;2024-01-30T02:51:40;98169.31;;;-1.28;100.00
6829;BME280;17930;48.592;8.868;2024-01-30T02:54:07;98158.38;;;-1.06;100.00
6829;BME280;17930;48.592;8.868;2024-01-30T02:56:35;98155.03;;;-1.07;100.00
6829;BME280;17930;48.592;8.868;2024-01-30T02:59:01;98154.91;;;-1.21;100.00
6829;BME280;17930;48.592;8.868;2024-01-30T03:01:28;98157.47;;;-1.29;100.00
6829;BME280;17930;48.592;8.868;2024-01-30T03:03:55;98150.13;;;-1.32;100.00
6829;BME280;17930;48.592;8.868;2024-01-30T03:06:21;98156.03;;;-1.24;100.00
6829;BME280;17930;48.592;8.868;2024-01-30T03:08:48;98160.34;;;-1.24;100.00
6829;BME280;17930;48.592;8.868;2024-01-30T03:11:17;98153.31;;;-1.30;100.00
6829;BME280;17930;48.592;8.868;2024-01-30T03:13:45;98157.81;;;-1.32;100.00
6829;BME280;17930;48.592;8.868;2024-01-30T03:16:12;98153.16;;;-1.29;100.00
6829;BME280;17930;48.592;8.868;2024-01-30T03:18:38;98153.00;;;-1.35;100.00
6829;BME280;17930;48.592;8.868;2024-01-30T03:21:05;98155.41;;;-1.34;100.00
6829;BME280;17930;48.592;8.868;2024-01-30T03:23:32;98158.13;;;-1.35;100.00
6829;BME280;17930;48.592;8.868;2024-01-30T03:25:58;98154.91;;;-1.37;100.00
6829;BME280;17930;48.592;8.868;2024-01-30T03:28:25;98146.16;;;-1.43;100.00
6829;BME280;17930;48.592;8.868;2024-01-30T03:30:53;98153.97;;;-1.44;100.00
6829;BME280;17930;48.592;8.868;2024-01-30T03:33:19;98149.19;;;-1.39;100.00
6829;BME280;17930;48.592;8.868;2024-01-30T03:35:46;98144.06;;;-1.31;100.00
6829;BME280;17930;48.592;8.868;2024-01-30T03:38:13;98142.13;;;-1.29;100.00
6829;BME280;17930;48.592;8.868;2024-01-30T03:40:39;98149.94;;;-1.23;100.00
6829;BME280;17930;48.592;8.868;2024-01-30T03:43:06;98152.34;;;-1.29;100.00
6829;BME280;17930;48.592;8.868;2024-01-30T03:45:33;98157.94;;;-1.26;100.00
6829;BME280;17930;48.592;8.868;2024-01-30T03:48:00;98155.91;;;-1.38;100.00
6829;BME280;17930;48.592;8.868;2024-01-30T03:50:27;98154.63;;;-1.50;100.00
6829;BME280;17930;48.592;8.868;2024-01-30T03:52:54;98136.44;;;-1.55;100.00
6829;BME280;17930;48.592;8.868;2024-01-30T03:55:21;98145.38;;;-1.59;100.00
6829;BME280;17930;48.592;8.868;2024-01-30T03:57:50;98150.94;;;-1.48;100.00
6829;BME280;17930;48.592;8.868;2024-01-30T04:00:17;98152.72;;;-1.56;100.00
6829;BME280;17930;48.592;8.868;2024-01-30T04:02:44;98148.88;;;-1.60;100.00
6829;BME280;17930;48.592;8.868;2024-01-30T04:05:13;98151.91;;;-1.49;100.00
6829;BME280;17930;48.592;8.868;2024-01-30T04:07:40;98143.72;;;-1.28;100.00
6829;BME280;17930;48.592;8.868;2024-01-30T04:10:07;98149.34;;;-1.33;100.00
6829;BME280;17930;48.592;8.868;2024-01-30T04:12:34;98151.13;;;-1.49;100.00
6829;BME280;17930;48.592;8.868;2024-01-30T04:15:01;98151.13;;;-1.49;100.00
6829;BME280;17930;48.592;8.868;2024-01-30T04:17:27;98150.78;;;-1.54;100.00
6829;BME280;17930;48.592;8.868;2024-01-30T04:19:55;98150.50;;;-1.59;100.00
6829;BME280;17930;48.592;8.868;2024-01-30T04:22:23;98151.59;;;-1.61;100.00
6829;BME280;17930;48.592;8.868;2024-01-30T04:24:49;98152.41;;;-1.61;100.00
6829;BME280;17930;48.592;8.868;2024-01-30T04:27:16;98155.88;;;-1.30;100.00
6829;BME280;17930;48.592;8.868;2024-01-30T04:29:43;98148.44;;;-1.02;100.00
6829;BME280;17930;48.592;8.868;2024-01-30T04:32:09;98151.28;;;-0.89;100.00
6829;BME280;17930;48.592;8.868;2024-01-30T04:34:36;98150.34;;;-0.96;100.00
6829;BME280;17930;48.592;8.868;2024-01-30T04:37:03;98154.25;;;-1.15;100.00
6829;BME280;17930;48.592;8.868;2024-01-30T04:39:32;98153.84;;;-0.89;100.00
6829;BME280;17930;48.592;8.868;2024-01-30T04:41:59;98148.41;;;-0.94;100.00
6829;BME280;17930;48.592;8.868;2024-01-30T04:44:26;98149.09;;;-1.07;100.00
6829;BME280;17930;48.592;8.868;2024-01-30T04:46:52;98154.56;;;-1.18;100.00
6829;BME280;17930;48.592;8.868;2024-01-30T04:49:19;98147.25;;;-1.29;100.00
6829;BME280;17930;48.592;8.868;2024-01-30T04:51:46;98150.13;;;-1.32;100.00
6829;BME280;17930;48.592;8.868;2024-01-30T04:54:12;98154.91;;;-1.37;100.00
6829;BME280;17930;48.592;8.868;2024-01-30T04:56:40;98150.75;;;-1.30;100.00
6829;BME280;17930;48.592;8.868;2024-01-30T04:59:07;98152.69;;;-1.32;100.00
6829;BME280;17930;48.592;8.868;2024-01-30T05:01:34;98155.25;;;-1.40;100.00
6829;BME280;17930;48.592;8.868;2024-01-30T05:04:00;98157.03;;;-1.49;100.00
6829;BME280;17930;48.592;8.868;2024-01-30T05:06:29;98166.78;;;-1.52;100.00
6829;BME280;17930;48.592;8.868;2024-01-30T05:08:55;98164.06;;;-1.51;100.00
6829;BME280;17930;48.592;8.868;2024-01-30T05:11:22;98161.00;;;-1.54;100.00
6829;BME280;17930;48.592;8.868;2024-01-30T05:13:50;98162.16;;;-1.56;100.00
6829;BME280;17930;48.592;8.868;2024-01-30T05:16:17;98166.94;;;-1.53;100.00
6829;BME280;17930;48.592;8.868;2024-01-30T05:18:44;98164.72;;;-1.56;100.00
6829;BME280;17930;48.592;8.868;2024-01-30T05:21:10;98163.44;;;-1.68;100.00
6829;BME280;17930;48.592;8.868;2024-01-30T05:23:37;98163.75;;;-1.71;100.00
6829;BME280;17930;48.592;8.868;2024-01-30T05:26:04;98163.91;;;-1.73;100.00
6829;BME280;17930;48.592;8.868;2024-01-30T05:28:31;98169.19;;;-1.74;100.00
6829;BME280;17930;48.592;8.868;2024-01-30T05:30:59;98164.25;;;-1.76;100.00
6829;BME280;17930;48.592;8.868;2024-01-30T05:33:25;98161.69;;;-1.68;100.00
6829;BME280;17930;48.592;8.868;2024-01-30T05:35:52;98172.22;;;-1.79;100.00
6829;BME280;17930;48.592;8.868;2024-01-30T05:38:20;98171.59;;;-1.73;100.00
6829;BME280;17930;48.592;8.868;2024-01-30T05:40:46;98171.91;;;-1.84;100.00
6829;BME280;17930;48.592;8.868;2024-01-30T05:43:13;98172.22;;;-1.87;100.00
6829;BME280;17930;48.592;8.868;2024-01-30T05:45:40;98177.97;;;-1.93;100.00
6829;BME280;17930;48.592;8.868;2024-01-30T05:48:08;98176.69;;;-1.97;100.00
6829;BME280;17930;48.592;8.868;2024-01-30T05:50:34;98176.69;;;-2.04;100.00
6829;BME280;17930;48.592;8.868;2024-01-30T05:53:01;98183.09;;;-2.01;100.00
6829;BME280;17930;48.592;8.868;2024-01-30T05:55:28;98187.69;;;-2.04;100.00
6829;BME280;17930;48.592;8.868;2024-01-30T05:57:54;98185.16;;;-2.04;100.00
6829;BME280;17930;48.592;8.868;2024-01-30T06:00:21;98182.28;;;-1.93;100.00
6829;BME280;17930;48.592;8.868;2024-01-30T06:02:48;98181.00;;;-1.97;100.00
6829;BME280;17930;48.592;8.868;2024-01-30T06:05:16;98176.38;;;-2.02;100.00
6829;BME280;17930;48.592;8.868;2024-01-30T06:07:43;98176.88;;;-1.90;100.00
6829;BME280;17930;48.592;8.868;2024-01-30T06:10:10;98180.84;;;-1.96;100.00
6829;BME280;17930;48.592;8.868;2024-01-30T06:12:37;98187.88;;;-1.98;100.00
6829;BME280;17930;48.592;8.868;2024-01-30T06:15:06;98187.88;;;-1.98;100.00
6829;BME280;17930;48.592;8.868;2024-01-30T06:17:33;98189.78;;;-2.00;100.00
6829;BME280;17930;48.592;8.868;2024-01-30T06:19:59;98187.22;;;-2.00;100.00
6829;BME280;17930;48.592;8.868;2024-01-30T06:22:27;98192.00;;;-1.97;100.00
6829;BME280;17930;48.592;8.868;2024-01-30T06:24:54;98191.41;;;-1.91;100.00
6829;BME280;17930;48.592;8.868;2024-01-30T06:27:21;98181.66;;;-1.87;100.00
6829;BME280;17930;48.592;8.868;2024-01-30T06:29:47;98192.66;;;-1.87;100.00
6829;BME280;17930;48.592;8.868;2024-01-30T06:32:14;98179.72;;;-1.85;100.00
6829;BME280;17930;48.592;8.868;2024-01-30T06:34:41;98184.69;;;-1.92;100.00
6829;BME280;17930;48.592;8.868;2024-01-30T06:37:09;98187.22;;;-1.84;100.00
6829;BME280;17930;48.592;8.868;2024-01-30T06:39:37;98175.56;;;-1.78;100.00
6829;BME280;17930;48.592;8.868;2024-01-30T06:42:04;98181.19;;;-1.75;100.00
6829;BME280;17930;48.592;8.868;2024-01-30T06:44:31;98179.56;;;-1.76;100.00
6829;BME280;17930;48.592;8.868;2024-01-30T06:46:57;98187.41;;;-1.77;100.00
6829;BME280;17930;48.592;8.868;2024-01-30T06:49:24;98187.41;;;-1.77;100.00
6829;BME280;17930;48.592;8.868;2024-01-30T06:51:51;98186.28;;;-1.75;100.00
6829;BME280;17930;48.592;8.868;2024-01-30T06:54:17;98187.56;;;-1.71;100.00
6829;BME280;17930;48.592;8.868;2024-01-30T06:56:45;98191.09;;;-1.72;100.00
6829;BME280;17930;48.592;8.868;2024-01-30T06:59:12;98191.53;;;-1.68;100.00
6829;BME280;17930;48.592;8.868;2024-01-30T07:01:39;98194.91;;;-1.60;100.00
6829;BME280;17930;48.592;8.868;2024-01-30T07:04:06;98195.72;;;-1.59;100.00
6829;BME280;17930;48.592;8.868;2024-01-30T07:06:32;98194.25;;;-1.54;100.00
6829;BME280;17930;48.592;8.868;2024-01-30T07:09:01;98184.97;;;-1.39;100.00
6829;BME280;17930;48.592;8.868;2024-01-30T07:11:29;98189.78;;;-1.28;100.00
6829;BME280;17930;48.592;8.868;2024-01-30T07:13:56;98200.63;;;-1.34;100.00
6829;BME280;17930;48.592;8.868;2024-01-30T07:16:24;98191.97;;;-1.17;100.00
6829;BME280;17930;48.592;8.868;2024-01-30T07:18:51;98189.41;;;-1.02;100.00
6829;BME280;17930;48.592;8.868;2024-01-30T07:21:17;98202.59;;;-0.82;100.00
6829;BME280;17930;48.592;8.868;2024-01-30T07:23:47;98202.13;;;-0.86;100.00
6829;BME280;17930;48.592;8.868;2024-01-30T07:26:13;98187.09;;;-0.89;100.00
6829;BME280;17930;48.592;8.868;2024-01-30T07:28:40;98183.28;;;-0.93;100.00
6829;BME280;17930;48.592;8.868;2024-01-30T07:31:08;98186.91;;;-0.79;100.00
6829;BME280;17930;48.592;8.868;2024-01-30T07:33:35;98191.41;;;-0.51;100.00
6829;BME280;17930;48.592;8.868;2024-01-30T07:36:02;98194.69;;;-0.27;100.00
6829;BME280;17930;48.592;8.868;2024-01-30T07:38:28;98200.81;;;-0.05;100.00
6829;BME280;17930;48.592;8.868;2024-01-30T07:40:58;98188.56;;;0.04;100.00
6829;BME280;17930;48.592;8.868;2024-01-30T07:43:24;98195.91;;;0.07;100.00
6829;BME280;17930;48.592;8.868;2024-01-30T07:45:51;98200.69;;;0.10;100.00
6829;BME280;17930;48.592;8.868;2024-01-30T07:48:19;98196.25;;;0.04;100.00
6829;BME280;17930;48.592;8.868;2024-01-30T07:50:46;98199.25;;;0.08;100.00
6829;BME280;17930;48.592;8.868;2024-01-30T07:53:13;98201.44;;;0.19;100.00
6829;BME280;17930;48.592;8.868;2024-01-30T07:55:40;98202.88;;;0.21;100.00
6829;BME280;17930;48.592;8.868;2024-01-30T07:58:09;98198.88;;;0.41;100.00
6829;BME280;17930;48.592;8.868;2024-01-30T08:00:35;98190.47;;;0.47;100.00
6829;BME280;17930;48.592;8.868;2024-01-30T08:03:03;98196.16;;;0.57;100.00
6829;BME280;17930;48.592;8.868;2024-01-30T08:05:31;98194.75;;;0.69;100.00
6829;BME280;17930;48.592;8.868;2024-01-30T08:07:57;98197.25;;;0.77;100.00
6829;BME280;17930;48.592;8.868;2024-01-30T08:10:24;98200.06;;;0.82;100.00
6829;BME280;17930;48.592;8.868;2024-01-30T08:12:51;98199.84;;;0.91;100.00
6829;BME280;17930;48.592;8.868;2024-01-30T08:15:18;98197.81;;;1.01;100.00
6829;BME280;17930;48.592;8.868;2024-01-30T08:17:44;98198.69;;;1.22;100.00
6829;BME280;17930;48.592;8.868;2024-01-30T08:20:11;98202.66;;;1.53;100.00
6829;BME280;17930;48.592;8.868;2024-01-30T08:22:40;98199.78;;;2.12;100.00
6829;BME280;17930;48.592;8.868;2024-01-30T08:25:07;98194.88;;;2.38;100.00
6829;BME280;17930;48.592;8.868;2024-01-30T08:27:35;98196.63;;;2.58;100.00
6829;BME280;17930;48.592;8.868;2024-01-30T08:30:05;98189.56;;;2.67;100.00
6829;BME280;17930;48.592;8.868;2024-01-30T08:32:32;98200.56;;;2.54;100.00
6829;BME280;17930;48.592;8.868;2024-01-30T08:34:59;98195.72;;;2.45;100.00
6829;BME280;17930;48.592;8.868;2024-01-30T08:37:29;98189.06;;;2.57;100.00
6829;BME280;17930;48.592;8.868;2024-01-30T08:39:57;98185.34;;;2.87;100.00
6829;BME280;17930;48.592;8.868;2024-01-30T08:42:23;98188.69;;;3.14;100.00
6829;BME280;17930;48.592;8.868;2024-01-30T08:44:50;98196.03;;;3.17;100.00
6829;BME280;17930;48.592;8.868;2024-01-30T08:47:18;98198.53;;;3.38;100.00
6829;BME280;17930;48.592;8.868;2024-01-30T08:49:45;98197.69;;;3.65;100.00
6829;BME280;17930;48.592;8.868;2024-01-30T08:52:12;98187.44;;;3.91;100.00
6829;BME280;17930;48.592;8.868;2024-01-30T08:54:39;98187.56;;;4.81;100.00
6829;BME280;17930;48.592;8.868;2024-01-30T08:57:07;98175.56;;;5.25;100.00
6829;BME280;17930;48.592;8.868;2024-01-30T08:59:34;98177.13;;;5.89;100.00
6829;BME280;17930;48.592;8.868;2024-01-30T09:02:00;98171.69;;;6.58;100.00
6829;BME280;17930;48.592;8.868;2024-01-30T09:04:27;98159.41;;;6.96;100.00
6829;BME280;17930;48.592;8.868;2024-01-30T09:06:54;98153.75;;;7.41;100.00
6829;BME280;17930;48.592;8.868;2024-01-30T09:09:21;98141.78;;;7.40;100.00
6829;BME280;17930;48.592;8.868;2024-01-30T09:11:48;98139.84;;;7.35;100.00
6829;BME280;17930;48.592;8.868;2024-01-30T09:14:16;98135.81;;;7.39;100.00
6829;BME280;17930;48.592;8.868;2024-01-30T09:16:43;98146.91;;;7.11;100.00
6829;BME280;17930;48.592;8.868;2024-01-30T09:19:10;98146.63;;;7.01;100.00
6829;BME280;17930;48.592;8.868;2024-01-30T09:21:36;98148.34;;;7.07;100.00
6829;BME280;17930;48.592;8.868;2024-01-30T09:24:04;98155.53;;;6.87;100.00
6829;BME280;17930;48.592;8.868;2024-01-30T09:26:30;98145.22;;;6.56;100.00
6829;BME280;17930;48.592;8.868;2024-01-30T09:28:57;98154.69;;;6.44;100.00
6829;BME280;17930;48.592;8.868;2024-01-30T09:31:25;98158.47;;;6.17;100.00
6829;BME280;17930;48.592;8.868;2024-01-30T09:33:52;98157.84;;;5.85;100.00
6829;BME280;17930;48.592;8.868;2024-01-30T09:36:19;98151.25;;;5.89;100.00
6829;BME280;17930;48.592;8.868;2024-01-30T09:38:46;98153.22;;;6.24;100.00
6829;BME280;17930;48.592;8.868;2024-01-30T09:41:13;98151.66;;;6.47;100.00
6829;BME280;17930;48.592;8.868;2024-01-30T09:43:41;98155.63;;;6.74;100.00
6829;BME280;17930;48.592;8.868;2024-01-30T09:46:14;98154.47;;;6.70;100.00
6829;BME280;17930;48.592;8.868;2024-01-30T09:48:46;98158.38;;;6.30;100.00
6829;BME280;17930;48.592;8.868;2024-01-30T09:51:14;98160.28;;;6.11;100.00
6829;BME280;17930;48.592;8.868;2024-01-30T09:53:42;98166.22;;;6.17;100.00
6829;BME280;17930;48.592;8.868;2024-01-30T09:56:09;98161.84;;;6.11;100.00
6829;BME280;17930;48.592;8.868;2024-01-30T09:58:36;98166.09;;;6.06;100.00
6829;BME280;17930;48.592;8.868;2024-01-30T10:01:05;98164.28;;;6.07;100.00
6829;BME280;17930;48.592;8.868;2024-01-30T10:03:32;98165.81;;;6.20;100.00
6829;BME280;17930;48.592;8.868;2024-01-30T10:06:01;98165.13;;;6.31;100.00
6829;BME280;17930;48.592;8.868;2024-01-30T10:08:28;98161.94;;;6.29;100.00
6829;BME280;17930;48.592;8.868;2024-01-30T10:10:55;98163.81;;;6.47;100.00
6829;BME280;17930;48.592;8.868;2024-01-30T10:13:21;98169.28;;;6.63;100.00
6829;BME280;17930;48.592;8.868;2024-01-30T10:15:48;98169.31;;;6.57;100.00
6829;BME280;17930;48.592;8.868;2024-01-30T10:18:16;98163.44;;;6.43;100.00
6829;BME280;17930;48.592;8.868;2024-01-30T10:20:42;98163.88;;;6.89;100.00
6829;BME280;17930;48.592;8.868;2024-01-30T10:23:11;98155.34;;;7.24;100.00
6829;BME280;17930;48.592;8.868;2024-01-30T10:25:38;98157.88;;;7.30;100.00
6829;BME280;17930;48.592;8.868;2024-01-30T10:28:05;98161.00;;;7.14;100.00
6829;BME280;17930;48.592;8.868;2024-01-30T10:30:32;98153.47;;;7.31;100.00
6829;BME280;17930;48.592;8.868;2024-01-30T10:32:58;98148.56;;;7.41;100.00
6829;BME280;17930;48.592;8.868;2024-01-30T10:35:25;98154.81;;;7.51;100.00
6829;BME280;17930;48.592;8.868;2024-01-30T10:37:52;98153.47;;;7.96;100.00
6829;BME280;17930;48.592;8.868;2024-01-30T10:40:27;98156.56;;;8.33;100.00
6829;BME280;17930;48.592;8.868;2024-01-30T10:42:55;98147.84;;;8.28;100.00
6829;BME280;17930;48.592;8.868;2024-01-30T10:45:22;98150.84;;;8.66;100.00
6829;BME280;17930;48.592;8.868;2024-01-30T10:47:52;98144.41;;;8.91;100.00
6829;BME280;17930;48.592;8.868;2024-01-30T10:50:20;98147.81;;;9.03;100.00
6829;BME280;17930;48.592;8.868;2024-01-30T10:52:47;98141.94;;;8.96;100.00
6829;BME280;17930;48.592;8.868;2024-01-30T10:55:15;98145.06;;;9.20;100.00
6829;BME280;17930;48.592;8.868;2024-01-30T10:57:44;98138.47;;;9.52;100.00
6829;BME280;17930;48.592;8.868;2024-01-30T11:00:13;98144.13;;;9.49;100.00
6829;BME280;17930;48.592;8.868;2024-01-30T11:02:42;98141.16;;;9.57;100.00
6829;BME280;17930;48.592;8.868;2024-01-30T11:05:09;98132.16;;;9.76;100.00
6829;BME280;17930;48.592;8.868;2024-01-30T11:07:36;98138.34;;;9.98;100.00
6829;BME280;17930;48.592;8.868;2024-01-30T11:10:05;98134.38;;;9.84;100.00
6829;BME280;17930;48.592;8.868;2024-01-30T11:12:38;98135.97;;;9.96;100.00
6829;BME280;17930;48.592;8.868;2024-01-30T11:15:12;98131.63;;;10.02;100.00
6829;BME280;17930;48.592;8.868;2024-01-30T11:17:44;98134.72;;;10.15;100.00
6829;BME280;17930;48.592;8.868;2024-01-30T11:20:12;98125.53;;;10.24;100.00
6829;BME280;17930;48.592;8.868;2024-01-30T11:22:42;98124.41;;;10.36;100.00
6829;BME280;17930;48.592;8.868;2024-01-30T11:25:11;98119.13;;;10.48;100.00
6829;BME280;17930;48.592;8.868;2024-01-30T11:27:38;98115.97;;;10.46;100.00
6829;BME280;17930;48.592;8.868;2024-01-30T11:30:07;98122.50;;;10.16;100.00
6829;BME280;17930;48.592;8.868;2024-01-30T11:32:35;98113.75;;;10.38;100.00
6829;BME280;17930;48.592;8.868;2024-01-30T11:35:03;98116.91;;;10.56;100.00
6829;BME280;17930;48.592;8.868;2024-01-30T11:37:32;98111.84;;;10.66;100.00
6829;BME280;17930;48.592;8.868;2024-01-30T11:40:04;98106.47;;;10.56;100.00
6829;BME280;17930;48.592;8.868;2024-01-30T11:42:31;98107.91;;;10.64;100.00
6829;BME280;17930;48.592;8.868;2024-01-30T11:45:00;98105.69;;;10.56;100.00
6829;BME280;17930;48.592;8.868;2024-01-30T11:47:27;98105.22;;;10.75;100.00
6829;BME280;17930;48.592;8.868;2024-01-30T11:49:56;98108.38;;;10.77;100.00
6829;BME280;17930;48.592;8.868;2024-01-30T11:52:23;98099.44;;;11.11;100.00
6829;BME280;17930;48.592;8.868;2024-01-30T11:54:49;98096.66;;;11.38;100.00
6829;BME280;17930;48.592;8.868;2024-01-30T11:57:16;98094.75;;;11.50;100.00
6829;BME280;17930;48.592;8.868;2024-01-30T11:59:43;98087.34;;;11.90;100.00
6829;BME280;17930;48.592;8.868;2024-01-30T12:02:15;98092.44;;;12.01;100.00
6829;BME280;17930;48.592;8.868;2024-01-30T12:04:42;98090.44;;;12.39;100.00
6829;BME280;17930;48.592;8.868;2024-01-30T12:07:10;98088.19;;;12.84;100.00
6829;BME280;17930;48.592;8.868;2024-01-30T12:09:37;98077.88;;;13.14;100.00
6829;BME280;17930;48.592;8.868;2024-01-30T12:12:04;98082.28;;;13.69;100.00
6829;BME280;17930;48.592;8.868;2024-01-30T12:14:37;98068.38;;;13.59;100.00
6829;BME280;17930;48.592;8.868;2024-01-30T12:17:04;98074.34;;;13.49;100.00
6829;BME280;17930;48.592;8.868;2024-01-30T12:19:33;98081.16;;;13.45;100.00
6829;BME280;17930;48.592;8.868;2024-01-30T12:22:00;98072.38;;;13.96;100.00
6829;BME280;17930;48.592;8.868;2024-01-30T12:24:28;98063.53;;;14.46;100.00
6829;BME280;17930;48.592;8.868;2024-01-30T12:26:56;98060.78;;;15.21;100.00
6829;BME280;17930;48.592;8.868;2024-01-30T12:29:23;98054.66;;;15.88;100.00
6829;BME280;17930;48.592;8.868;2024-01-30T12:31:53;98058.41;;;15.77;100.00
6829;BME280;17930;48.592;8.868;2024-01-30T12:34:19;98053.19;;;14.99;100.00
6829;BME280;17930;48.592;8.868;2024-01-30T12:36:46;98061.50;;;15.41;100.00
6829;BME280;17930;48.592;8.868;2024-01-30T12:39:14;98051.25;;;16.31;100.00
6829;BME280;17930;48.592;8.868;2024-01-30T12:41:42;98055.38;;;16.98;100.00
6829;BME280;17930;48.592;8.868;2024-01-30T12:44:09;98053.28;;;16.39;100.00
6829;BME280;17930;48.592;8.868;2024-01-30T12:46:36;98047.88;;;16.20;100.00
6829;BME280;17930;48.592;8.868;2024-01-30T12:49:02;98047.06;;;16.25;100.00
6829;BME280;17930;48.592;8.868;2024-01-30T12:51:29;98048.13;;;17.32;100.00
6829;BME280;17930;48.592;8.868;2024-01-30T12:53:56;98047.44;;;16.98;99.38
6829;BME280;17930;48.592;8.868;2024-01-30T12:56:23;98051.16;;;17.44;96.98
6829;BME280;17930;48.592;8.868;2024-01-30T12:58:51;98044.22;;;17.89;96.21
6829;BME280;17930;48.592;8.868;2024-01-30T13:01:18;98045.69;;;18.32;92.89
6829;BME280;17930;48.592;8.868;2024-01-30T13:03:45;98041.69;;;18.34;85.85